sensor_id;sensor_type;location;lat;lon;timestamp;pressure;altitude;pressure_sealevel;temperature;humidity
46876;BME280;32866;50.160;14.768;2023-03-21T00:01:31;99502.31;;;8.00;100.00
46876;BME280;32866;50.160;14.768;2023-03-21T00:03:56;99466.28;;;7.65;100.00
46876;BME280;32866;50.160;14.768;2023-03-21T00:06:22;99489.28;;;7.88;100.00
46876;BME280;32866;50.160;14.768;2023-03-21T00:08:47;99486.16;;;8.09;100.00
46876;BME280;32866;50.160;14.768;2023-03-21T00:11:13;99487.38;;;8.28;100.00
46876;BME280;32866;50.160;14.768;2023-03-21T00:13:38;99488.88;;;8.29;100.00
46876;BME280;32866;50.160;14.768;2023-03-21T00:16:08;99481.81;;;8.12;100.00
46876;BME280;32866;50.160;14.768;2023-03-21T00:18:34;99484.34;;;8.23;100.00
46876;BME280;32866;50.160;14.768;2023-03-21T00:21:06;99480.66;;;8.13;100.00
46876;BME280;32866;50.160;14.768;2023-03-21T00:23:33;99484.94;;;7.90;100.00
46876;BME280;32866;50.160;14.768;2023-03-21T00:25:59;99476.81;;;7.87;100.00
46876;BME280;32866;50.160;14.768;2023-03-21T00:28:25;99472.75;;;7.75;100.00
46876;BME280;32866;50.160;14.768;2023-03-21T00:30:55;99474.19;;;8.03;100.00
46876;BME280;32866;50.160;14.768;2023-03-21T00:33:21;99463.19;;;7.87;100.00
46876;BME280;32866;50.160;14.768;2023-03-21T00:35:49;99425.19;;;7.76;100.00
46876;BME280;32866;50.160;14.768;2023-03-21T00:38:17;99471.72;;;7.89;100.00
46876;BME280;32866;50.160;14.768;2023-03-21T00:40:42;99464.06;;;7.80;100.00
46876;BME280;32866;50.160;14.768;2023-03-21T00:43:08;99458.34;;;7.74;100.00
46876;BME280;32866;50.160;14.768;2023-03-21T00:45:34;99460.00;;;7.68;100.00
46876;BME280;32866;50.160;14.768;2023-03-21T00:47:59;99460.41;;;7.67;100.00
46876;BME280;32866;50.160;14.768;2023-03-21T00:50:24;99468.41;;;7.54;100.00
46876;BME280;32866;50.160;14.768;2023-03-21T00:52:50;99463.44;;;7.49;100.00
46876;BME280;32866;50.160;14.768;2023-03-21T00:55:18;99472.56;;;7.62;100.00
46876;BME280;32866;50.160;14.768;2023-03-21T00:57:43;99443.50;;;7.52;100.00
46876;BME280;32866;50.160;14.768;2023-03-21T01:00:10;99467.75;;;7.70;100.00
46876;BME280;32866;50.160;14.768;2023-03-21T01:02:37;99465.06;;;7.90;100.00
46876;BME280;32866;50.160;14.768;2023-03-21T01:05:08;99459.78;;;8.23;100.00
46876;BME280;32866;50.160;14.768;2023-03-21T01:07:34;99418.28;;;7.91;100.00
46876;BME280;32866;50.160;14.768;2023-03-21T01:09:59;99419.72;;;7.96;100.00
46876;BME280;32866;50.160;14.768;2023-03-21T01:12:25;99458.44;;;8.31;100.00
46876;BME280;32866;50.160;14.768;2023-03-21T01:14:51;99453.81;;;8.28;100.00
46876;BME280;32866;50.160;14.768;2023-03-21T01:17:17;99461.72;;;8.42;100.00
46876;BME280;32866;50.160;14.768;2023-03-21T01:19:42;99422.28;;;8.07;100.00
46876;BME280;32866;50.160;14.768;2023-03-21T01:22:07;99413.16;;;8.13;100.00
46876;BME280;32866;50.160;14.768;2023-03-21T01:24:33;99458.88;;;8.49;100.00
46876;BME280;32866;50.160;14.768;2023-03-21T01:27:01;99463.25;;;8.47;100.00
46876;BME280;32866;50.160;14.768;2023-03-21T01:29:26;99414.34;;;8.12;100.00
46876;BME280;32866;50.160;14.768;2023-03-21T01:31:51;99412.19;;;8.04;100.00
46876;BME280;32866;50.160;14.768;2023-03-21T01:34:17;99458.44;;;8.31;100.00
46876;BME280;32866;50.160;14.768;2023-03-21T01:36:42;99451.31;;;8.37;100.00
46876;BME280;32866;50.160;14.768;2023-03-21T01:39:08;99462.91;;;8.41;100.00
46876;BME280;32866;50.160;14.768;2023-03-21T01:41:36;99454.38;;;8.39;100.00
46876;BME280;32866;50.160;14.768;2023-03-21T01:44:03;99446.41;;;8.28;100.00
46876;BME280;32866;50.160;14.768;2023-03-21T01:46:41;99454.13;;;8.13;100.00
46876;BME280;32866;50.160;14.768;2023-03-21T01:49:15;99455.09;;;8.03;100.00
46876;BME280;32866;50.160;14.768;2023-03-21T01:51:48;99459.97;;;7.92;100.00
46876;BME280;32866;50.160;14.768;2023-03-21T01:54:22;99459.97;;;7.92;100.00
46876;BME280;32866;50.160;14.768;2023-03-21T01:56:50;99468.63;;;7.87;100.00
46876;BME280;32866;50.160;14.768;2023-03-21T01:59:24;99448.84;;;8.03;100.00
46876;BME280;32866;50.160;14.768;2023-03-21T02:01:52;99452.06;;;7.97;100.00
46876;BME280;32866;50.160;14.768;2023-03-21T02:04:18;99454.50;;;7.92;100.00
46876;BME280;32866;50.160;14.768;2023-03-21T02:07:06;99444.25;;;7.99;100.00
46876;BME280;32866;50.160;14.768;2023-03-21T02:09:36;99445.06;;;7.96;100.00
46876;BME280;32866;50.160;14.768;2023-03-21T02:12:02;99442.69;;;7.98;100.00
46876;BME280;32866;50.160;14.768;2023-03-21T02:14:28;99451.72;;;7.95;100.00
46876;BME280;32866;50.160;14.768;2023-03-21T02:28:08;99446.19;;;7.99;100.00
46876;BME280;32866;50.160;14.768;2023-03-21T02:41:56;99420.63;;;7.69;100.00
46876;BME280;32866;50.160;14.768;2023-03-21T02:46:59;99444.78;;;7.91;100.00
46876;BME280;32866;50.160;14.768;2023-03-21T02:49:34;99432.53;;;7.99;100.00
46876;BME280;32866;50.160;14.768;2023-03-21T02:52:04;99433.44;;;7.92;100.00
46876;BME280;32866;50.160;14.768;2023-03-21T02:54:33;99434.56;;;7.95;100.00
46876;BME280;32866;50.160;14.768;2023-03-21T02:57:01;99434.91;;;7.77;100.00
46876;BME280;32866;50.160;14.768;2023-03-21T02:59:29;99440.84;;;7.72;100.00
46876;BME280;32866;50.160;14.768;2023-03-21T03:01:56;99441.59;;;7.72;100.00
46876;BME280;32866;50.160;14.768;2023-03-21T03:04:24;99442.06;;;7.67;100.00
46876;BME280;32866;50.160;14.768;2023-03-21T03:12:26;99436.88;;;7.53;100.00
46876;BME280;32866;50.160;14.768;2023-03-21T03:18:23;99443.03;;;7.33;100.00
46876;BME280;32866;50.160;14.768;2023-03-21T03:21:08;99441.00;;;7.14;100.00
46876;BME280;32866;50.160;14.768;2023-03-21T03:23:52;99436.88;;;7.05;100.00
46876;BME280;32866;50.160;14.768;2023-03-21T03:28:59;99445.75;;;7.10;100.00
46876;BME280;32866;50.160;14.768;2023-03-21T03:31:29;99440.41;;;7.02;100.00
46876;BME280;32866;50.160;14.768;2023-03-21T03:33:59;99436.75;;;7.13;100.00
46876;BME280;32866;50.160;14.768;2023-03-21T03:36:34;99445.84;;;7.02;100.00
46876;BME280;32866;50.160;14.768;2023-03-21T03:39:05;99441.13;;;7.06;100.00
46876;BME280;32866;50.160;14.768;2023-03-21T03:41:32;99448.13;;;7.08;100.00
46876;BME280;32866;50.160;14.768;2023-03-21T03:44:01;99444.81;;;7.20;100.00
46876;BME280;32866;50.160;14.768;2023-03-21T03:46:33;99447.81;;;7.25;100.00
46876;BME280;32866;50.160;14.768;2023-03-21T03:49:04;99433.84;;;7.23;100.00
46876;BME280;32866;50.160;14.768;2023-03-21T03:51:38;99428.56;;;7.13;100.00
46876;BME280;32866;50.160;14.768;2023-03-21T03:54:11;99413.63;;;6.97;100.00
46876;BME280;32866;50.160;14.768;2023-03-21T03:56:38;99409.28;;;7.00;100.00
46876;BME280;32866;50.160;14.768;2023-03-21T03:59:04;99436.41;;;7.11;100.00
46876;BME280;32866;50.160;14.768;2023-03-21T04:01:32;99430.44;;;6.92;100.00
46876;BME280;32866;50.160;14.768;2023-03-21T04:03:57;99432.25;;;7.02;100.00
46876;BME280;32866;50.160;14.768;2023-03-21T04:06:25;99432.19;;;7.06;100.00
46876;BME280;32866;50.160;14.768;2023-03-21T04:08:51;99409.78;;;6.67;100.00
46876;BME280;32866;50.160;14.768;2023-03-21T04:11:17;99400.63;;;6.54;100.00
46876;BME280;32866;50.160;14.768;2023-03-21T04:13:42;99409.41;;;6.65;100.00
46876;BME280;32866;50.160;14.768;2023-03-21T04:16:09;99441.34;;;6.92;100.00
46876;BME280;32866;50.160;14.768;2023-03-21T04:18:35;99393.97;;;6.55;100.00
46876;BME280;32866;50.160;14.768;2023-03-21T04:21:06;99433.72;;;6.80;100.00
46876;BME280;32866;50.160;14.768;2023-03-21T04:23:32;99413.41;;;6.57;100.00
46876;BME280;32866;50.160;14.768;2023-03-21T04:25:59;99436.66;;;6.65;100.00
46876;BME280;32866;50.160;14.768;2023-03-21T04:28:25;99411.69;;;6.40;100.00
46876;BME280;32866;50.160;14.768;2023-03-21T04:30:50;99441.63;;;6.71;100.00
46876;BME280;32866;50.160;14.768;2023-03-21T04:33:15;99407.03;;;6.40;100.00
46876;BME280;32866;50.160;14.768;2023-03-21T04:35:41;99438.13;;;6.70;100.00
46876;BME280;32866;50.160;14.768;2023-03-21T04:38:06;99433.47;;;6.71;100.00
46876;BME280;32866;50.160;14.768;2023-03-21T04:40:32;99410.78;;;6.50;100.00
46876;BME280;32866;50.160;14.768;2023-03-21T04:42:57;99441.53;;;6.78;100.00
46876;BME280;32866;50.160;14.768;2023-03-21T04:45:25;99443.84;;;6.79;100.00
46876;BME280;32866;50.160;14.768;2023-03-21T04:47:50;99433.13;;;6.65;100.00
46876;BME280;32866;50.160;14.768;2023-03-21T04:50:16;99448.59;;;6.72;100.00
46876;BME280;32866;50.160;14.768;2023-03-21T04:52:41;99406.16;;;6.47;100.00
46876;BME280;32866;50.160;14.768;2023-03-21T04:55:07;99449.69;;;6.78;100.00
46876;BME280;32866;50.160;14.768;2023-03-21T04:57:35;99427.09;;;6.54;100.00
46876;BME280;32866;50.160;14.768;2023-03-21T05:00:00;99445.13;;;6.71;100.00
46876;BME280;32866;50.160;14.768;2023-03-21T05:02:26;99438.97;;;6.67;100.00
46876;BME280;32866;50.160;14.768;2023-03-21T05:04:51;99446.75;;;6.65;100.00
46876;BME280;32866;50.160;14.768;2023-03-21T05:07:16;99440.50;;;6.68;100.00
46876;BME280;32866;50.160;14.768;2023-03-21T05:09:42;99412.31;;;6.51;100.00
46876;BME280;32866;50.160;14.768;2023-03-21T05:12:07;99439.97;;;6.77;100.00
46876;BME280;32866;50.160;14.768;2023-03-21T05:14:32;99433.06;;;6.72;100.00
46876;BME280;32866;50.160;14.768;2023-03-21T05:16:58;99443.91;;;6.76;100.00
46876;BME280;32866;50.160;14.768;2023-03-21T05:19:28;99438.13;;;6.70;100.00
46876;BME280;32866;50.160;14.768;2023-03-21T05:22:04;99445.38;;;6.80;100.00
46876;BME280;32866;50.160;14.768;2023-03-21T05:24:30;99443.19;;;6.99;100.00
46876;BME280;32866;50.160;14.768;2023-03-21T05:26:57;99442.31;;;7.05;100.00
46876;BME280;32866;50.160;14.768;2023-03-21T05:29:27;99421.13;;;6.90;100.00
46876;BME280;32866;50.160;14.768;2023-03-21T05:31:52;99440.19;;;7.17;100.00
46876;BME280;32866;50.160;14.768;2023-03-21T05:34:17;99453.34;;;7.22;100.00
46876;BME280;32866;50.160;14.768;2023-03-21T05:36:43;99412.34;;;7.05;100.00
46876;BME280;32866;50.160;14.768;2023-03-21T05:39:08;99442.63;;;7.35;100.00
46876;BME280;32866;50.160;14.768;2023-03-21T05:41:33;99417.56;;;7.20;100.00
46876;BME280;32866;50.160;14.768;2023-03-21T05:43:59;99414.47;;;7.18;100.00
46876;BME280;32866;50.160;14.768;2023-03-21T05:46:25;99404.53;;;7.08;100.00
46876;BME280;32866;50.160;14.768;2023-03-21T05:48:50;99443.78;;;7.37;100.00
46876;BME280;32866;50.160;14.768;2023-03-21T05:51:17;99461.00;;;7.31;100.00
46876;BME280;32866;50.160;14.768;2023-03-21T05:53:42;99452.78;;;7.34;100.00
46876;BME280;32866;50.160;14.768;2023-03-21T05:56:08;99450.19;;;7.23;100.00
46876;BME280;32866;50.160;14.768;2023-03-21T05:58:33;99425.88;;;6.85;100.00
46876;BME280;32866;50.160;14.768;2023-03-21T06:00:59;99463.19;;;7.16;100.00
46876;BME280;32866;50.160;14.768;2023-03-21T06:03:24;99462.34;;;7.19;100.00
46876;BME280;32866;50.160;14.768;2023-03-21T06:05:50;99453.72;;;7.24;100.00
46876;BME280;32866;50.160;14.768;2023-03-21T06:08:16;99467.72;;;7.50;100.00
46876;BME280;32866;50.160;14.768;2023-03-21T06:10:41;99456.56;;;7.40;100.00
46876;BME280;32866;50.160;14.768;2023-03-21T06:13:07;99470.78;;;7.75;100.00
46876;BME280;32866;50.160;14.768;2023-03-21T06:15:32;99469.50;;;8.24;100.00
46876;BME280;32866;50.160;14.768;2023-03-21T06:17:58;99466.03;;;8.43;100.00
46876;BME280;32866;50.160;14.768;2023-03-21T06:20:23;99478.47;;;8.64;100.00
46876;BME280;32866;50.160;14.768;2023-03-21T06:22:49;99477.69;;;8.84;100.00
46876;BME280;32866;50.160;14.768;2023-03-21T06:25:14;99471.84;;;9.02;100.00
46876;BME280;32866;50.160;14.768;2023-03-21T06:27:40;99483.09;;;9.04;100.00
46876;BME280;32866;50.160;14.768;2023-03-21T06:30:05;99482.72;;;9.22;100.00
46876;BME280;32866;50.160;14.768;2023-03-21T06:32:31;99478.34;;;9.24;100.00
46876;BME280;32866;50.160;14.768;2023-03-21T06:34:56;99448.94;;;8.96;100.00
46876;BME280;32866;50.160;14.768;2023-03-21T06:37:22;99452.25;;;8.87;100.00
46876;BME280;32866;50.160;14.768;2023-03-21T06:39:48;99485.69;;;9.27;100.00
46876;BME280;32866;50.160;14.768;2023-03-21T06:42:14;99495.94;;;9.23;100.00
46876;BME280;32866;50.160;14.768;2023-03-21T06:44:40;99491.59;;;9.26;100.00
46876;BME280;32866;50.160;14.768;2023-03-21T06:47:05;99496.44;;;9.35;100.00
46876;BME280;32866;50.160;14.768;2023-03-21T06:49:31;99451.75;;;9.08;100.00
46876;BME280;32866;50.160;14.768;2023-03-21T06:51:57;99501.84;;;9.55;100.00
46876;BME280;32866;50.160;14.768;2023-03-21T06:54:22;99479.38;;;9.47;100.00
46876;BME280;32866;50.160;14.768;2023-03-21T06:56:50;99503.28;;;9.92;100.00
46876;BME280;32866;50.160;14.768;2023-03-21T06:59:16;99502.13;;;10.06;100.00
46876;BME280;32866;50.160;14.768;2023-03-21T07:01:42;99506.44;;;10.20;100.00
46876;BME280;32866;50.160;14.768;2023-03-21T07:04:08;99510.97;;;10.27;100.00
46876;BME280;32866;50.160;14.768;2023-03-21T07:06:34;99507.34;;;10.46;100.00
46876;BME280;32866;50.160;14.768;2023-03-21T07:09:00;99511.84;;;10.53;100.00
46876;BME280;32866;50.160;14.768;2023-03-21T07:11:27;99507.88;;;11.22;100.00
46876;BME280;32866;50.160;14.768;2023-03-21T07:13:53;99513.75;;;12.19;100.00
46876;BME280;32866;50.160;14.768;2023-03-21T07:16:19;99506.19;;;13.08;100.00
46876;BME280;32866;50.160;14.768;2023-03-21T07:18:45;99504.66;;;12.76;100.00
46876;BME280;32866;50.160;14.768;2023-03-21T07:21:11;99506.06;;;13.52;100.00
46876;BME280;32866;50.160;14.768;2023-03-21T07:23:36;99501.06;;;13.29;100.00
46876;BME280;32866;50.160;14.768;2023-03-21T07:26:03;99512.41;;;12.99;100.00
46876;BME280;32866;50.160;14.768;2023-03-21T07:28:28;99507.09;;;12.74;100.00
46876;BME280;32866;50.160;14.768;2023-03-21T07:31:00;99516.53;;;12.06;100.00
46876;BME280;32866;50.160;14.768;2023-03-21T07:33:27;99512.34;;;11.67;100.00
46876;BME280;32866;50.160;14.768;2023-03-21T07:35:53;99515.13;;;11.28;100.00
46876;BME280;32866;50.160;14.768;2023-03-21T07:38:19;99512.25;;;11.19;100.00
46876;BME280;32866;50.160;14.768;2023-03-21T07:40:45;99513.03;;;11.45;100.00
46876;BME280;32866;50.160;14.768;2023-03-21T07:43:12;99513.53;;;13.11;100.00
46876;BME280;32866;50.160;14.768;2023-03-21T07:45:38;99484.56;;;14.06;100.00
46876;BME280;32866;50.160;14.768;2023-03-21T07:48:03;99504.09;;;15.16;100.00
46876;BME280;32866;50.160;14.768;2023-03-21T07:50:29;99511.56;;;16.06;100.00
46876;BME280;32866;50.160;14.768;2023-03-21T07:52:54;99510.41;;;15.74;100.00
46876;BME280;32866;50.160;14.768;2023-03-21T07:55:20;99505.81;;;16.34;100.00
46876;BME280;32866;50.160;14.768;2023-03-21T07:57:48;99509.94;;;16.00;96.78
46876;BME280;32866;50.160;14.768;2023-03-21T08:00:14;99509.25;;;14.90;99.99
46876;BME280;32866;50.160;14.768;2023-03-21T08:02:47;99471.31;;;15.42;97.03
46876;BME280;32866;50.160;14.768;2023-03-21T08:05:13;99498.72;;;14.79;98.26
46876;BME280;32866;50.160;14.768;2023-03-21T08:07:38;99512.75;;;15.66;96.80
46876;BME280;32866;50.160;14.768;2023-03-21T08:10:03;99510.56;;;14.61;95.06
46876;BME280;32866;50.160;14.768;2023-03-21T08:12:29;99515.44;;;14.57;99.14
46876;BME280;32866;50.160;14.768;2023-03-21T08:14:54;99491.81;;;14.74;99.70
46876;BME280;32866;50.160;14.768;2023-03-21T08:17:20;99518.81;;;15.55;93.70
46876;BME280;32866;50.160;14.768;2023-03-21T08:19:45;99518.59;;;14.92;94.32
46876;BME280;32866;50.160;14.768;2023-03-21T08:22:10;99511.91;;;15.17;94.45
46876;BME280;32866;50.160;14.768;2023-03-21T08:24:35;99516.53;;;15.78;89.82
46876;BME280;32866;50.160;14.768;2023-03-21T08:27:01;99494.94;;;17.20;79.98
46876;BME280;32866;50.160;14.768;2023-03-21T08:29:26;99512.88;;;16.50;79.99
46876;BME280;32866;50.160;14.768;2023-03-21T08:31:52;99512.97;;;15.53;82.34
46876;BME280;32866;50.160;14.768;2023-03-21T08:34:17;99472.09;;;15.09;81.84
46876;BME280;32866;50.160;14.768;2023-03-21T08:36:43;99513.56;;;15.57;87.09
46876;BME280;32866;50.160;14.768;2023-03-21T08:39:09;99506.44;;;16.98;78.92
46876;BME280;32866;50.160;14.768;2023-03-21T08:41:35;99504.88;;;16.97;75.77
46876;BME280;32866;50.160;14.768;2023-03-21T08:44:02;99471.88;;;16.63;75.00
46876;BME280;32866;50.160;14.768;2023-03-21T08:46:29;99492.69;;;15.56;81.05
46876;BME280;32866;50.160;14.768;2023-03-21T08:48:54;99500.31;;;16.49;80.19
46876;BME280;32866;50.160;14.768;2023-03-21T08:51:20;99503.06;;;17.09;77.04
46876;BME280;32866;50.160;14.768;2023-03-21T08:53:45;99501.78;;;17.60;73.86
46876;BME280;32866;50.160;14.768;2023-03-21T08:56:11;99501.84;;;18.27;71.34
46876;BME280;32866;50.160;14.768;2023-03-21T08:58:36;99499.91;;;18.13;72.53
46876;BME280;32866;50.160;14.768;2023-03-21T09:01:03;99481.06;;;18.17;70.01
46876;BME280;32866;50.160;14.768;2023-03-21T09:03:29;99496.56;;;17.68;69.62
46876;BME280;32866;50.160;14.768;2023-03-21T09:05:54;99491.63;;;17.92;75.01
46876;BME280;32866;50.160;14.768;2023-03-21T09:08:20;99495.44;;;18.42;68.51
46876;BME280;32866;50.160;14.768;2023-03-21T09:10:54;99490.59;;;18.95;66.21
46876;BME280;32866;50.160;14.768;2023-03-21T09:13:20;99497.28;;;20.06;63.03
46876;BME280;32866;50.160;14.768;2023-03-21T09:15:45;99497.53;;;18.79;63.06
46876;BME280;32866;50.160;14.768;2023-03-21T09:18:11;99496.75;;;17.23;66.50
46876;BME280;32866;50.160;14.768;2023-03-21T09:20:39;99497.63;;;16.69;67.95
46876;BME280;32866;50.160;14.768;2023-03-21T09:23:05;99501.13;;;15.86;73.97
46876;BME280;32866;50.160;14.768;2023-03-21T09:25:30;99483.53;;;15.99;75.53
46876;BME280;32866;50.160;14.768;2023-03-21T09:27:56;99494.88;;;16.01;75.09
46876;BME280;32866;50.160;14.768;2023-03-21T09:30:23;99454.94;;;16.02;72.16
46876;BME280;32866;50.160;14.768;2023-03-21T09:32:48;99490.16;;;15.77;75.51
46876;BME280;32866;50.160;14.768;2023-03-21T09:35:18;99497.22;;;15.45;74.08
46876;BME280;32866;50.160;14.768;2023-03-21T09:37:45;99484.22;;;15.12;74.49
46876;BME280;32866;50.160;14.768;2023-03-21T09:40:22;99482.22;;;15.03;75.31
46876;BME280;32866;50.160;14.768;2023-03-21T09:45:58;99491.28;;;14.33;81.21
46876;BME280;32866;50.160;14.768;2023-03-21T09:48:54;99502.31;;;14.05;82.63
46876;BME280;32866;50.160;14.768;2023-03-21T09:51:24;99491.72;;;14.22;80.19
46876;BME280;32866;50.160;14.768;2023-03-21T09:53:54;99488.38;;;14.37;81.59
46876;BME280;32866;50.160;14.768;2023-03-21T09:56:22;99488.66;;;14.67;79.63
46876;BME280;32866;50.160;14.768;2023-03-21T09:58:53;99455.13;;;14.50;79.39
46876;BME280;32866;50.160;14.768;2023-03-21T10:01:29;99477.16;;;14.68;80.39
46876;BME280;32866;50.160;14.768;2023-03-21T10:04:07;99481.44;;;14.69;79.64
46876;BME280;32866;50.160;14.768;2023-03-21T10:06:37;99482.66;;;14.68;78.24
46876;BME280;32866;50.160;14.768;2023-03-21T10:14:21;99488.38;;;16.73;72.30
46876;BME280;32866;50.160;14.768;2023-03-21T10:16:56;99490.03;;;15.95;70.80
46876;BME280;32866;50.160;14.768;2023-03-21T10:19:23;99453.59;;;15.25;76.83
46876;BME280;32866;50.160;14.768;2023-03-21T10:21:50;99468.78;;;14.96;77.87
46876;BME280;32866;50.160;14.768;2023-03-21T10:24:20;99465.22;;;14.34;79.77
46876;BME280;32866;50.160;14.768;2023-03-21T10:26:47;99468.00;;;14.34;83.14
46876;BME280;32866;50.160;14.768;2023-03-21T10:29:15;99471.41;;;17.51;71.67
46876;BME280;32866;50.160;14.768;2023-03-21T10:31:41;99477.72;;;18.65;63.49
46876;BME280;32866;50.160;14.768;2023-03-21T10:37:29;99462.13;;;17.13;66.45
46876;BME280;32866;50.160;14.768;2023-03-21T10:39:54;99467.09;;;16.79;69.48
46876;BME280;32866;50.160;14.768;2023-03-21T10:42:25;99455.28;;;17.29;64.98
46876;BME280;32866;50.160;14.768;2023-03-21T10:44:53;99461.97;;;17.22;66.31
46876;BME280;32866;50.160;14.768;2023-03-21T10:47:30;99461.84;;;16.81;66.41
46876;BME280;32866;50.160;14.768;2023-03-21T10:50:10;99431.72;;;16.53;68.01
46876;BME280;32866;50.160;14.768;2023-03-21T10:52:40;99460.28;;;18.33;63.91
46876;BME280;32866;50.160;14.768;2023-03-21T10:57:45;99453.91;;;18.53;64.20
46876;BME280;32866;50.160;14.768;2023-03-21T11:00:18;99450.81;;;18.19;64.22
46876;BME280;32866;50.160;14.768;2023-03-21T11:02:47;99443.78;;;17.00;68.18
46876;BME280;32866;50.160;14.768;2023-03-21T11:05:21;99457.28;;;16.78;69.33
46876;BME280;32866;50.160;14.768;2023-03-21T11:08:12;99449.47;;;19.42;60.09
46876;BME280;32866;50.160;14.768;2023-03-21T11:11:00;99447.19;;;19.35;60.25
46876;BME280;32866;50.160;14.768;2023-03-21T11:13:41;99448.59;;;19.68;59.65
46876;BME280;32866;50.160;14.768;2023-03-21T11:16:18;99452.38;;;20.75;54.92
46876;BME280;32866;50.160;14.768;2023-03-21T11:18:50;99433.00;;;19.76;55.34
46876;BME280;32866;50.160;14.768;2023-03-21T11:21:16;99438.72;;;18.48;57.56
46876;BME280;32866;50.160;14.768;2023-03-21T11:23:47;99433.59;;;17.06;63.14
46876;BME280;32866;50.160;14.768;2023-03-21T11:26:30;99434.94;;;16.81;62.06
46876;BME280;32866;50.160;14.768;2023-03-21T11:28:57;99427.72;;;16.09;64.86
46876;BME280;32866;50.160;14.768;2023-03-21T11:31:23;99433.63;;;16.32;65.34
46876;BME280;32866;50.160;14.768;2023-03-21T11:34:05;99428.56;;;16.01;67.43
46876;BME280;32866;50.160;14.768;2023-03-21T11:36:33;99429.50;;;15.73;68.29
46876;BME280;32866;50.160;14.768;2023-03-21T11:39:35;99423.50;;;15.99;68.30
46876;BME280;32866;50.160;14.768;2023-03-21T11:42:05;99421.59;;;16.05;68.10
46876;BME280;32866;50.160;14.768;2023-03-21T11:44:42;99413.22;;;16.00;67.54
46876;BME280;32866;50.160;14.768;2023-03-21T11:47:09;99411.69;;;16.88;65.73
46876;BME280;32866;50.160;14.768;2023-03-21T11:49:34;99396.69;;;18.87;61.54
46876;BME280;32866;50.160;14.768;2023-03-21T11:54:49;99412.16;;;19.54;54.15
46876;BME280;32866;50.160;14.768;2023-03-21T11:57:37;99409.91;;;19.04;55.25
46876;BME280;32866;50.160;14.768;2023-03-21T12:00:14;99403.56;;;18.66;57.91
46876;BME280;32866;50.160;14.768;2023-03-21T12:05:31;99390.69;;;17.37;61.67
46876;BME280;32866;50.160;14.768;2023-03-21T12:10:46;99390.44;;;17.82;60.40
46876;BME280;32866;50.160;14.768;2023-03-21T12:16:13;99381.19;;;18.43;61.26
46876;BME280;32866;50.160;14.768;2023-03-21T12:19:20;99356.34;;;19.58;56.50
46876;BME280;32866;50.160;14.768;2023-03-21T12:37:52;99352.91;;;25.70;36.53
46876;BME280;32866;50.160;14.768;2023-03-21T12:46:18;99318.94;;;25.12;37.67
46876;BME280;32866;50.160;14.768;2023-03-21T12:51:18;99336.63;;;24.94;37.35
46876;BME280;32866;50.160;14.768;2023-03-21T12:56:21;99329.44;;;24.39;39.59
46876;BME280;32866;50.160;14.768;2023-03-21T12:58:53;99329.63;;;24.87;38.82
46876;BME280;32866;50.160;14.768;2023-03-21T13:01:22;99319.69;;;24.59;38.61
46876;BME280;32866;50.160;14.768;2023-03-21T13:04:05;99319.13;;;25.28;37.56
46876;BME280;32866;50.160;14.768;2023-03-21T13:06:33;99305.88;;;23.32;40.84
46876;BME280;32866;50.160;14.768;2023-03-21T13:09:11;99305.31;;;21.38;44.79
46876;BME280;32866;50.160;14.768;2023-03-21T13:11:40;99296.81;;;21.66;44.59
46876;BME280;32866;50.160;14.768;2023-03-21T13:14:19;99303.00;;;23.38;42.29
46876;BME280;32866;50.160;14.768;2023-03-21T13:19:35;99282.50;;;22.67;40.76
46876;BME280;32866;50.160;14.768;2023-03-21T13:22:10;99283.72;;;22.96;43.58
46876;BME280;32866;50.160;14.768;2023-03-21T13:24:48;99271.72;;;22.57;41.68
46876;BME280;32866;50.160;14.768;2023-03-21T13:29:47;99287.69;;;21.19;44.46
46876;BME280;32866;50.160;14.768;2023-03-21T13:35:02;99241.53;;;21.29;45.21
46876;BME280;32866;50.160;14.768;2023-03-21T13:37:41;99269.97;;;21.63;44.86
46876;BME280;32866;50.160;14.768;2023-03-21T13:40:23;99253.75;;;21.98;44.06
46876;BME280;32866;50.160;14.768;2023-03-21T13:42:53;99270.47;;;22.77;40.93
46876;BME280;32866;50.160;14.768;2023-03-21T13:45:31;99269.97;;;22.54;41.89
46876;BME280;32866;50.160;14.768;2023-03-21T13:47:59;99266.81;;;21.78;44.66
46876;BME280;32866;50.160;14.768;2023-03-21T13:50:50;99262.53;;;22.38;42.10
46876;BME280;32866;50.160;14.768;2023-03-21T13:53:21;99255.81;;;21.92;42.75
46876;BME280;32866;50.160;14.768;2023-03-21T13:56:06;99261.50;;;21.80;42.57
46876;BME280;32866;50.160;14.768;2023-03-21T14:03:46;99253.19;;;19.16;50.19
46876;BME280;32866;50.160;14.768;2023-03-21T14:06:12;99269.00;;;18.87;51.24
46876;BME280;32866;50.160;14.768;2023-03-21T14:08:40;99253.72;;;18.66;51.67
46876;BME280;32866;50.160;14.768;2023-03-21T14:11:13;99216.09;;;18.10;53.17
46876;BME280;32866;50.160;14.768;2023-03-21T14:13:42;99254.50;;;19.38;51.09
46876;BME280;32866;50.160;14.768;2023-03-21T14:16:15;99242.56;;;20.73;46.79
46876;BME280;32866;50.160;14.768;2023-03-21T14:18:54;99248.72;;;20.43;48.77
46876;BME280;32866;50.160;14.768;2023-03-21T14:21:47;99250.38;;;20.80;46.66
46876;BME280;32866;50.160;14.768;2023-03-21T14:24:15;99239.66;;;20.09;48.67
46876;BME280;32866;50.160;14.768;2023-03-21T14:26:44;99248.00;;;19.97;50.04
46876;BME280;32866;50.160;14.768;2023-03-21T14:29:19;99227.03;;;19.79;48.74
46876;BME280;32866;50.160;14.768;2023-03-21T14:31:46;99256.03;;;19.50;50.96
46876;BME280;32866;50.160;14.768;2023-03-21T14:34:13;99243.38;;;19.26;49.39
46876;BME280;32866;50.160;14.768;2023-03-21T14:36:39;99230.28;;;19.55;48.96
46876;BME280;32866;50.160;14.768;2023-03-21T14:39:20;99237.38;;;18.73;51.01
46876;BME280;32866;50.160;14.768;2023-03-21T14:41:50;99236.03;;;18.63;52.23